METAR Data
IDs: Format: Raw Decoded Include TAF

Data at: 1716 UTC 20 Sep 2018

KPAE 201710Z 13006KT 10SM SCT013 BKN036 OVC045 13/10 A3017 RMK AO2 T01330100

KPAE 201318Z 2013/2112 31004KT P6SM VCSH OVC010
  FM201400 24004KT P6SM OVC015
  FM201600 22004KT P6SM OVC020
  FM202000 20007KT P6SM BKN040
  FM210400 17013G20KT P6SM BKN040 OVC060


KAWO 201656Z AUTO 19003KT 10SM FEW055 SCT080 14/09 A3017 RMK AO2 SLP220 T01440094
No TAF found for KAWO

KBFI 201653Z 14007KT 10SM SCT014 BKN020 OVC038 14/11 A3017 RMK AO2 SLP216 T01440106

KBFI 201504Z 2015/2112 16005KT P6SM SCT011 OVC030
  FM201800 19004KT P6SM BKN030 OVC040
  FM202100 21005KT P6SM SCT045 OVC070
  FM210400 16008KT P6SM BKN040 OVC070


KRNT 201653Z 16005KT 10SM BKN017 OVC027 14/11 A3017 RMK AO2 SLP221 T01440106
No TAF found for KRNT

KSEA 201653Z 18006KT 10SM FEW007 OVC010 13/11 A3017 RMK AO2 SLP224 T01330106

KSEA 201558Z 2016/2118 14006KT P6SM FEW008 BKN014 OVC025
  FM201900 22005KT P6SM BKN025 OVC035
  FM202100 21005KT P6SM SCT040 OVC070
  FM210400 18008KT P6SM BKN035 OVC060